Time;durP1;ratioP1;P1;durP2;ratioP2;P2;SDS_P1;SDS_P2;PMS_P1;PMS_P2;Temp;Humidity;BMP_temperature;BMP_pressure;BME280_temperature;BME280_humidity;BME280_pressure;Samples;Min_cycle;Max_cycle;Signal;HPM_P1;HPM_P2
2021/10/08 00:00:17;;;;;;;8.02;5.97;;;9.80;84.80;;;;;;5073099;28;20025;-73
2021/10/08 00:02:42;;;;;;;11.00;6.47;;;9.70;84.90;;;;;;5073037;28;20028;-72
2021/10/08 00:05:10;;;;;;;8.32;6.22;;;9.80;84.90;;;;;;5073069;28;20117;-72
2021/10/08 00:07:35;;;;;;;8.52;6.35;;;9.90;85.00;;;;;;5072928;28;20500;-72
2021/10/08 00:10:01;;;;;;;14.02;9.60;;;9.90;84.80;;;;;;5071521;28;20033;-72
2021/10/08 00:12:26;;;;;;;14.02;9.80;;;9.90;84.40;;;;;;5071727;28;20481;-72
2021/10/08 00:14:52;;;;;;;14.38;9.38;;;9.80;84.50;;;;;;5071547;28;20384;-72
2021/10/08 00:17:17;;;;;;;14.00;8.57;;;9.70;85.50;;;;;;5071383;28;20027;-72
2021/10/08 00:19:43;;;;;;;10.68;7.47;;;9.50;86.00;;;;;;5071593;28;20091;-72
2021/10/08 00:22:09;;;;;;;9.75;7.85;;;9.50;85.90;;;;;;5071301;28;20028;-72
2021/10/08 00:24:34;;;;;;;13.15;8.05;;;9.50;86.10;;;;;;5071035;28;20040;-72
2021/10/08 00:27:01;;;;;;;10.38;8.07;;;9.60;86.00;;;;;;5070926;28;20024;-72
2021/10/08 00:29:26;;;;;;;9.60;7.47;;;9.60;86.10;;;;;;5071314;28;20047;-73
2021/10/08 00:31:52;;;;;;;10.77;8.00;;;9.60;86.30;;;;;;5071441;28;20493;-73
2021/10/08 00:34:17;;;;;;;10.68;8.02;;;9.60;86.20;;;;;;5071325;28;20029;-73
2021/10/08 00:36:43;;;;;;;12.38;7.82;;;9.60;86.20;;;;;;5070988;28;20021;-72
2021/10/08 00:39:08;;;;;;;10.95;7.47;;;9.70;86.10;;;;;;5071265;28;20090;-72
2021/10/08 00:41:34;;;;;;;8.77;7.18;;;9.70;86.10;;;;;;5071222;28;20024;-72
2021/10/08 00:44:00;;;;;;;12.02;8.25;;;9.50;86.40;;;;;;5070979;28;20036;-72
2021/10/08 00:46:26;;;;;;;13.50;7.55;;;9.60;86.40;;;;;;5071243;28;20016;-72
2021/10/08 00:48:52;;;;;;;9.23;7.22;;;9.70;86.40;;;;;;5071118;28;20030;-72
2021/10/08 00:51:20;;;;;;;11.00;7.50;;;9.70;86.30;;;;;;5071162;28;20047;-72
2021/10/08 00:53:46;;;;;;;13.35;9.15;;;9.70;86.10;;;;;;5071153;28;20032;-72
2021/10/08 00:56:12;;;;;;;10.90;7.63;;;9.70;86.10;;;;;;5070992;28;20020;-72
2021/10/08 00:58:40;;;;;;;12.75;8.88;;;9.70;86.00;;;;;;5071126;28;20063;-72
2021/10/08 01:01:07;;;;;;;12.27;7.93;;;9.60;86.20;;;;;;5070689;28;20028;-72
2021/10/08 01:03:33;;;;;;;11.80;7.95;;;9.60;86.30;;;;;;5070979;28;20194;-72
2021/10/08 01:05:58;;;;;;;10.45;7.95;;;9.60;86.50;;;;;;5070589;28;20024;-72
2021/10/08 01:08:24;;;;;;;12.10;9.15;;;9.60;86.40;;;;;;5071004;28;20059;-72
2021/10/08 01:10:50;;;;;;;12.45;7.90;;;9.70;86.30;;;;;;5070911;28;20021;-72
2021/10/08 01:13:16;;;;;;;12.90;8.45;;;9.70;86.10;;;;;;5071886;28;20025;-72
2021/10/08 01:15:42;;;;;;;15.13;9.07;;;9.70;86.00;;;;;;5072313;28;20028;-72
2021/10/08 01:18:07;;;;;;;12.20;9.43;;;9.70;85.80;;;;;;5072095;28;20473;-72
2021/10/08 01:20:34;;;;;;;13.65;9.40;;;9.50;86.40;;;;;;5072176;28;20035;-72
2021/10/08 01:23:00;;;;;;;12.73;9.32;;;9.40;87.20;;;;;;5070767;28;20020;-71
2021/10/08 01:25:28;;;;;;;12.85;10.00;;;9.40;87.40;;;;;;5070831;28;20048;-72
2021/10/08 01:27:54;;;;;;;14.43;9.68;;;9.30;88.00;;;;;;5070720;28;20048;-72
2021/10/08 01:30:21;;;;;;;13.02;9.02;;;9.20;88.30;;;;;;5070657;28;20051;-72
2021/10/08 01:32:48;;;;;;;13.77;9.13;;;9.30;88.20;;;;;;5070599;28;20082;-72
2021/10/08 01:35:14;;;;;;;17.00;9.57;;;9.30;88.00;;;;;;5070810;28;20032;-72
2021/10/08 01:37:40;;;;;;;13.10;9.95;;;9.40;87.80;;;;;;5072441;28;20032;-72
2021/10/08 01:40:06;;;;;;;13.82;9.50;;;9.40;87.50;;;;;;5074211;28;20016;-72
2021/10/08 01:42:32;;;;;;;10.80;7.88;;;9.50;87.50;;;;;;5074260;28;20055;-73
2021/10/08 01:44:59;;;;;;;14.55;9.70;;;9.50;87.30;;;;;;5074383;28;20449;-72
2021/10/08 01:47:25;;;;;;;12.95;8.75;;;9.50;87.00;;;;;;5074415;28;20070;-71
2021/10/08 01:49:50;;;;;;;14.27;8.77;;;9.50;86.90;;;;;;5073845;28;20473;-72
2021/10/08 01:52:17;;;;;;;12.13;9.02;;;9.50;86.90;;;;;;5073852;28;20036;-71
2021/10/08 01:54:43;;;;;;;10.55;9.15;;;9.50;86.80;;;;;;5074302;28;20017;-71
2021/10/08 01:57:08;;;;;;;12.18;8.75;;;9.40;87.30;;;;;;5073899;28;20032;-71
2021/10/08 01:59:34;;;;;;;16.23;10.70;;;9.30;87.60;;;;;;5074113;28;20021;-74
2021/10/08 02:01:59;;;;;;;18.05;11.18;;;9.30;87.50;;;;;;5073936;28;20032;-71
2021/10/08 02:04:25;;;;;;;11.68;9.75;;;9.20;87.80;;;;;;5076333;28;20036;-72
2021/10/08 02:06:50;;;;;;;12.57;9.52;;;9.20;88.20;;;;;;5077304;28;20036;-72
2021/10/08 02:09:16;;;;;;;14.07;10.05;;;9.20;88.30;;;;;;5079235;28;20035;-71
2021/10/08 02:11:42;;;;;;;16.30;11.27;;;9.10;89.00;;;;;;5077792;28;20027;-72
2021/10/08 02:14:07;;;;;;;15.10;10.77;;;9.10;89.00;;;;;;5075302;28;20052;-71
2021/10/08 02:16:33;;;;;;;17.73;9.98;;;9.10;89.20;;;;;;5073691;28;20090;-72
2021/10/08 02:18:58;;;;;;;13.43;9.25;;;9.10;89.10;;;;;;5073391;28;20410;-72
2021/10/08 02:21:24;;;;;;;11.68;9.57;;;9.10;89.20;;;;;;5073800;28;20025;-72
2021/10/08 02:23:51;;;;;;;13.98;10.32;;;9.10;89.10;;;;;;5073593;28;20109;-72
2021/10/08 02:26:17;;;;;;;13.07;9.77;;;9.10;89.10;;;;;;5073818;28;20354;-72
2021/10/08 02:28:42;;;;;;;13.38;8.68;;;9.10;88.70;;;;;;5073243;28;20030;-72
2021/10/08 02:31:09;;;;;;;12.98;8.43;;;9.10;88.60;;;;;;5073445;28;20048;-72
2021/10/08 02:33:35;;;;;;;9.85;8.05;;;9.10;88.30;;;;;;5073589;28;20028;-71
2021/10/08 02:36:01;;;;;;;11.68;8.15;;;9.10;88.00;;;;;;5073258;28;20473;-72
2021/10/08 02:38:28;;;;;;;9.55;7.60;;;9.20;87.60;;;;;;5073601;28;20471;-71
2021/10/08 02:40:54;;;;;;;12.93;8.52;;;9.10;87.20;;;;;;5072927;28;20021;-71
2021/10/08 02:43:19;;;;;;;9.65;6.88;;;9.10;87.00;;;;;;5073003;28;20021;-72
2021/10/08 02:45:45;;;;;;;11.40;8.23;;;9.10;87.10;;;;;;5073126;28;20485;-72
2021/10/08 02:48:11;;;;;;;14.10;9.00;;;9.00;87.00;;;;;;5072840;28;20024;-72
2021/10/08 02:50:36;;;;;;;10.73;8.27;;;9.00;87.00;;;;;;5073259;28;20107;-72
2021/10/08 02:53:02;;;;;;;12.90;7.88;;;9.00;87.20;;;;;;5073229;28;20021;-71
2021/10/08 02:55:27;;;;;;;12.63;8.27;;;8.90;87.40;;;;;;5074278;28;20051;-72
2021/10/08 02:57:53;;;;;;;11.98;8.18;;;8.90;87.40;;;;;;5072786;28;20449;-71
2021/10/08 03:00:18;;;;;;;13.13;8.52;;;8.90;87.20;;;;;;5072745;28;20050;-72
2021/10/08 03:02:44;;;;;;;12.95;8.30;;;8.90;87.20;;;;;;5072924;28;20060;-71
2021/10/08 03:05:10;;;;;;;12.65;9.50;;;8.90;87.00;;;;;;5072882;28;20031;-71
2021/10/08 03:07:36;;;;;;;12.80;10.02;;;8.90;87.10;;;;;;5074166;28;20052;-72
2021/10/08 03:10:04;;;;;;;13.80;11.10;;;8.80;87.20;;;;;;5074082;28;20436;-72
2021/10/08 03:12:29;;;;;;;18.30;11.48;;;8.80;87.80;;;;;;5074104;28;20476;-71
2021/10/08 03:14:55;;;;;;;17.02;12.68;;;8.80;88.30;;;;;;5074064;28;20047;-72
2021/10/08 03:17:20;;;;;;;18.98;11.68;;;8.80;88.40;;;;;;5074085;28;20035;-71
2021/10/08 03:19:46;;;;;;;17.00;12.88;;;8.80;88.50;;;;;;5073861;28;20066;-72
2021/10/08 03:22:11;;;;;;;17.00;12.27;;;8.80;88.60;;;;;;5073805;28;20021;-72
2021/10/08 03:24:37;;;;;;;15.07;12.23;;;8.80;88.60;;;;;;5073790;28;20108;-72
2021/10/08 03:27:03;;;;;;;15.93;12.70;;;8.90;88.70;;;;;;5073610;28;20469;-71
2021/10/08 03:29:29;;;;;;;18.55;13.82;;;8.80;88.40;;;;;;5073565;28;20029;-72
2021/10/08 03:31:54;;;;;;;18.83;13.82;;;8.80;88.60;;;;;;5073537;28;20032;-71
2021/10/08 03:34:20;;;;;;;16.58;12.77;;;8.80;88.80;;;;;;5073327;28;20047;-72
2021/10/08 03:36:51;;;;;;;17.80;14.00;;;8.80;88.90;;;;;;5073616;28;20025;-71
2021/10/08 03:39:21;;;;;;;21.83;15.95;;;8.70;89.00;;;;;;5073322;28;20048;-71
2021/10/08 03:41:47;;;;;;;19.70;15.07;;;8.70;89.20;;;;;;5073464;28;20027;-73
2021/10/08 03:44:13;;;;;;;20.98;14.15;;;8.70;89.20;;;;;;5071863;28;20040;-73
2021/10/08 03:46:44;;;;;;;16.92;12.82;;;8.70;89.20;;;;;;5073384;28;20021;-73
2021/10/08 03:49:13;;;;;;;17.05;12.27;;;8.70;89.40;;;;;;5073282;28;20036;-73
2021/10/08 03:51:39;;;;;;;15.48;10.35;;;8.80;89.30;;;;;;5073090;28;20016;-73
2021/10/08 03:54:05;;;;;;;12.20;9.23;;;8.70;88.60;;;;;;5073211;28;20020;-73
2021/10/08 03:56:30;;;;;;;12.38;9.43;;;8.80;87.70;;;;;;5073125;28;20043;-73
2021/10/08 03:58:57;;;;;;;15.65;9.43;;;8.70;87.00;;;;;;5072920;28;20021;-73
2021/10/08 04:01:23;;;;;;;15.43;9.18;;;8.60;86.30;;;;;;5072391;28;20044;-73
2021/10/08 04:03:49;;;;;;;13.35;9.13;;;8.60;86.20;;;;;;5072871;28;20090;-74
2021/10/08 04:06:16;;;;;;;12.13;9.30;;;8.50;85.90;;;;;;5072919;28;20026;-73
2021/10/08 04:08:42;;;;;;;13.98;9.90;;;8.60;86.10;;;;;;5072963;28;20119;-73
2021/10/08 04:11:08;;;;;;;17.65;11.45;;;8.50;86.10;;;;;;5072802;28;20017;-73
2021/10/08 04:13:34;;;;;;;17.42;11.70;;;8.50;86.10;;;;;;5071456;28;20032;-73
2021/10/08 04:15:59;;;;;;;15.52;11.00;;;8.50;86.30;;;;;;5072849;28;20034;-73
2021/10/08 04:18:25;;;;;;;20.10;12.80;;;8.50;86.50;;;;;;5071512;28;20116;-74
2021/10/08 04:20:50;;;;;;;25.48;13.98;;;8.60;86.90;;;;;;5072762;28;20040;-73
2021/10/08 04:23:17;;;;;;;18.45;12.25;;;8.60;86.90;;;;;;5072572;28;20036;-73
2021/10/08 04:25:43;;;;;;;20.45;14.15;;;8.50;87.30;;;;;;5072588;28;20457;-73
2021/10/08 04:28:09;;;;;;;23.63;14.38;;;8.50;87.70;;;;;;5072434;28;20020;-73
2021/10/08 04:30:34;;;;;;;20.50;13.65;;;8.50;87.80;;;;;;5072411;28;20432;-73
2021/10/08 04:33:00;;;;;;;16.92;12.40;;;8.50;88.00;;;;;;5072621;28;20020;-73
2021/10/08 04:35:25;;;;;;;17.55;13.18;;;8.50;88.00;;;;;;5072655;28;20028;-73
2021/10/08 04:37:51;;;;;;;21.42;14.23;;;8.50;88.20;;;;;;5072535;28;20043;-74
2021/10/08 04:40:16;;;;;;;26.40;18.58;;;8.60;88.30;;;;;;5072404;28;20530;-73
2021/10/08 04:42:42;;;;;;;26.13;17.77;;;8.50;88.90;;;;;;5072347;28;20024;-73
2021/10/08 04:45:08;;;;;;;35.85;19.90;;;8.40;89.80;;;;;;5072344;28;20104;-73
2021/10/08 04:47:34;;;;;;;33.47;20.23;;;8.50;89.80;;;;;;5072429;28;20030;-73
2021/10/08 04:50:00;;;;;;;34.22;20.48;;;8.50;90.00;;;;;;5072292;28;20028;-73
2021/10/08 04:52:26;;;;;;;27.10;18.70;;;8.50;90.20;;;;;;5072314;28;20035;-73
2021/10/08 04:54:51;;;;;;;26.23;18.17;;;8.50;90.30;;;;;;5072419;28;20033;-73
2021/10/08 04:57:17;;;;;;;31.92;20.95;;;8.60;90.50;;;;;;5072326;28;20040;-74
2021/10/08 04:59:43;;;;;;;26.88;18.92;;;8.60;90.60;;;;;;5072181;28;20036;-73
2021/10/08 05:02:08;;;;;;;27.25;19.38;;;8.50;90.80;;;;;;5070890;28;20029;-73
2021/10/08 05:04:34;;;;;;;29.40;19.67;;;8.50;91.00;;;;;;5072141;28;20370;-73
2021/10/08 05:06:59;;;;;;;24.80;17.75;;;8.50;91.10;;;;;;5072099;28;20021;-72
2021/10/08 05:09:25;;;;;;;29.08;19.10;;;8.50;91.20;;;;;;5071883;28;20039;-72
2021/10/08 05:11:50;;;;;;;30.17;19.45;;;8.40;91.10;;;;;;5072899;28;20028;-73
2021/10/08 05:14:17;;;;;;;26.60;18.08;;;8.50;91.30;;;;;;5076039;28;20074;-72
2021/10/08 05:16:44;;;;;;;31.67;21.40;;;8.40;91.10;;;;;;5075938;28;20040;-73
2021/10/08 05:19:10;;;;;;;28.33;18.55;;;8.40;91.50;;;;;;5075887;28;20053;-74
2021/10/08 05:21:35;;;;;;;35.38;20.90;;;8.40;91.70;;;;;;5075902;28;20025;-73
2021/10/08 05:24:01;;;;;;;30.17;18.40;;;8.50;92.00;;;;;;5075662;28;20036;-73
2021/10/08 05:26:26;;;;;;;36.80;20.88;;;8.40;92.40;;;;;;5075534;28;20021;-72
2021/10/08 05:28:52;;;;;;;26.83;19.08;;;8.40;92.60;;;;;;5075414;28;20343;-73
2021/10/08 05:31:18;;;;;;;39.03;22.35;;;8.50;92.50;;;;;;5075280;28;20048;-73
2021/10/08 05:33:43;;;;;;;33.78;21.48;;;8.50;92.80;;;;;;5074658;28;20028;-72
2021/10/08 05:36:09;;;;;;;37.92;23.73;;;8.50;93.10;;;;;;5075148;28;20021;-72
2021/10/08 05:38:35;;;;;;;29.48;21.05;;;8.50;93.10;;;;;;5075455;28;20021;-71
2021/10/08 05:41:01;;;;;;;38.13;23.15;;;8.50;93.00;;;;;;5075407;28;20039;-71
2021/10/08 05:43:27;;;;;;;28.88;19.92;;;8.50;92.60;;;;;;5075424;28;20122;-72
2021/10/08 05:45:56;;;;;;;29.45;19.83;;;8.50;92.80;;;;;;5075405;28;20181;-72
2021/10/08 05:48:22;;;;;;;28.33;20.70;;;8.40;92.90;;;;;;5075673;28;20100;-71
2021/10/08 05:50:47;;;;;;;24.15;17.67;;;8.40;92.90;;;;;;5074996;28;20125;-72
2021/10/08 05:53:13;;;;;;;30.20;20.95;;;8.50;93.10;;;;;;5075764;28;20036;-71
2021/10/08 05:55:39;;;;;;;28.58;20.10;;;8.60;92.80;;;;;;5075541;28;20017;-71
2021/10/08 05:58:06;;;;;;;22.98;18.73;;;8.60;92.50;;;;;;5075341;28;20051;-72
2021/10/08 06:00:33;;;;;;;27.95;18.90;;;8.70;92.60;;;;;;5075409;28;20358;-72
2021/10/08 06:03:01;;;;;;;30.85;18.75;;;8.80;92.50;;;;;;5075309;28;20033;-72
2021/10/08 06:05:27;;;;;;;24.92;18.90;;;8.80;92.30;;;;;;5075580;28;20017;-74
2021/10/08 06:07:53;;;;;;;30.15;20.75;;;8.90;92.00;;;;;;5075129;28;20210;-72
2021/10/08 06:10:18;;;;;;;30.38;21.25;;;8.80;91.60;;;;;;5075097;28;20017;-73
2021/10/08 06:12:44;;;;;;;28.50;20.17;;;8.80;91.60;;;;;;5075219;28;20032;-72
2021/10/08 06:15:10;;;;;;;26.60;19.73;;;8.80;91.80;;;;;;5074952;28;20154;-71
2021/10/08 06:17:36;;;;;;;34.47;22.90;;;8.80;91.80;;;;;;5075009;28;20028;-71
2021/10/08 06:20:03;;;;;;;28.55;19.27;;;8.90;91.90;;;;;;5073407;28;20028;-71
2021/10/08 06:22:28;;;;;;;28.88;20.77;;;8.90;91.90;;;;;;5074802;28;20032;-73
2021/10/08 06:24:54;;;;;;;30.98;19.80;;;8.90;91.70;;;;;;5073933;28;20101;-73
2021/10/08 06:27:20;;;;;;;30.02;20.65;;;8.90;91.90;;;;;;5074719;28;20028;-74
2021/10/08 06:29:46;;;;;;;31.20;22.20;;;8.90;92.80;;;;;;5074449;28;20074;-73
2021/10/08 06:32:11;;;;;;;25.45;17.80;;;8.90;91.90;;;;;;5073592;28;20032;-72
2021/10/08 06:34:37;;;;;;;28.17;20.70;;;8.90;92.20;;;;;;5074739;28;20368;-73
2021/10/08 06:37:03;;;;;;;31.52;21.35;;;8.90;92.00;;;;;;5074438;28;20480;-71
2021/10/08 06:39:28;;;;;;;28.42;20.65;;;8.80;91.90;;;;;;5073154;28;20465;-74
2021/10/08 06:41:54;;;;;;;27.35;18.77;;;8.80;92.30;;;;;;5072965;28;20070;-72
2021/10/08 06:44:19;;;;;;;26.52;18.73;;;9.00;92.30;;;;;;5072859;28;20052;-73
2021/10/08 06:46:45;;;;;;;26.67;19.73;;;9.10;92.10;;;;;;5074171;28;20035;-72
2021/10/08 06:49:11;;;;;;;27.17;19.17;;;9.20;91.80;;;;;;5072872;28;20028;-72
2021/10/08 06:51:37;;;;;;;28.10;20.65;;;9.20;91.20;;;;;;5072561;28;20517;-74
2021/10/08 06:54:03;;;;;;;28.92;20.10;;;9.30;90.90;;;;;;5072121;28;20392;-72
2021/10/08 06:56:30;;;;;;;30.95;20.38;;;9.30;90.90;;;;;;5072486;28;20061;-72
2021/10/08 06:58:56;;;;;;;22.60;17.98;;;9.40;90.70;;;;;;5072446;28;20025;-74
2021/10/08 07:01:22;;;;;;;25.08;18.67;;;9.50;90.50;;;;;;5072650;28;20385;-73
2021/10/08 07:03:48;;;;;;;25.70;18.77;;;9.50;90.30;;;;;;5072199;28;20150;-73
2021/10/08 07:06:14;;;;;;;25.88;19.33;;;9.60;90.10;;;;;;5072244;28;20046;-73
2021/10/08 07:08:40;;;;;;;23.08;19.02;;;9.50;89.60;;;;;;5074019;28;20540;-72
2021/10/08 07:11:05;;;;;;;22.77;16.48;;;9.60;89.70;;;;;;5072445;28;20094;-72
2021/10/08 07:13:31;;;;;;;31.30;20.60;;;9.60;89.90;;;;;;5072192;28;20124;-72
2021/10/08 07:15:58;;;;;;;27.25;17.42;;;9.60;89.40;;;;;;5072111;28;20055;-72
2021/10/08 07:18:25;;;;;;;25.70;18.92;;;9.60;89.90;;;;;;5072483;28;20036;-72
2021/10/08 07:20:51;;;;;;;26.92;19.95;;;9.70;89.90;;;;;;5072217;28;20021;-73
2021/10/08 07:23:17;;;;;;;22.80;17.90;;;9.80;89.40;;;;;;5072203;28;20035;-74
2021/10/08 07:25:43;;;;;;;25.10;18.63;;;9.90;89.40;;;;;;5072135;28;20544;-72
2021/10/08 07:28:09;;;;;;;25.63;18.25;;;10.00;89.20;;;;;;5071900;28;20128;-72
2021/10/08 07:30:34;;;;;;;25.20;19.00;;;10.10;89.20;;;;;;5071788;28;20041;-72
2021/10/08 07:33:00;;;;;;;21.58;16.38;;;10.20;88.50;;;;;;5072026;28;20052;-73
2021/10/08 07:35:26;;;;;;;26.75;16.95;;;10.40;88.20;;;;;;5070842;28;20170;-75
2021/10/08 07:37:51;;;;;;;27.90;16.55;;;10.40;88.00;;;;;;5073291;28;20024;-75
2021/10/08 07:40:17;;;;;;;22.13;14.77;;;10.90;96.30;;;;;;5072053;28;20024;-77
2021/10/08 07:42:44;;;;;;;22.65;15.65;;;11.10;95.00;;;;;;5055161;28;20077;-76
2021/10/08 07:45:11;;;;;;;24.35;16.52;;;11.40;92.40;;;;;;5072738;28;20028;-77
2021/10/08 07:47:38;;;;;;;29.45;15.82;;;11.50;89.70;;;;;;5073698;28;20029;-72
2021/10/08 07:50:05;;;;;;;23.73;15.10;;;11.60;86.90;;;;;;5071719;28;20020;-75
2021/10/08 07:52:31;;;;;;;20.73;15.10;;;11.60;85.80;;;;;;5071917;28;20318;-78
2021/10/08 07:54:57;;;;;;;20.17;15.07;;;11.70;85.70;;;;;;5055369;28;20416;-78
2021/10/08 07:57:22;;;;;;;17.80;13.55;;;11.80;84.70;;;;;;5071388;28;20032;-78
2021/10/08 07:59:48;;;;;;;20.55;15.95;;;11.70;84.50;;;;;;5069814;28;20045;-78
2021/10/08 08:02:13;;;;;;;20.45;14.20;;;11.80;83.90;;;;;;5071390;28;20485;-78
2021/10/08 08:04:39;;;;;;;18.23;13.93;;;11.90;83.60;;;;;;5071941;28;20188;-78
2021/10/08 08:07:05;;;;;;;19.95;15.70;;;12.10;82.70;;;;;;5074646;28;20055;-78
2021/10/08 08:09:31;;;;;;;19.48;14.90;;;12.10;81.10;;;;;;5077428;28;20560;-78
2021/10/08 08:11:57;;;;;;;19.58;15.15;;;12.10;80.40;;;;;;5071412;28;20115;-78
2021/10/08 08:14:24;;;;;;;20.33;16.40;;;12.10;81.30;;;;;;5071315;28;20529;-78
2021/10/08 08:16:51;;;;;;;19.75;15.32;;;12.10;79.80;;;;;;5070898;28;20033;-78
2021/10/08 08:19:17;;;;;;;19.95;14.85;;;12.20;80.40;;;;;;5073317;28;20020;-78
2021/10/08 08:21:43;;;;;;;19.20;15.23;;;12.10;80.10;;;;;;5083305;28;20040;-78
2021/10/08 08:24:09;;;;;;;19.35;15.20;;;12.10;80.40;;;;;;5071078;28;20488;-78
2021/10/08 08:26:36;;;;;;;21.50;16.90;;;12.10;81.50;;;;;;5070790;28;20020;-78
2021/10/08 08:29:04;;;;;;;20.45;15.45;;;12.10;79.90;;;;;;5073546;28;20511;-78
2021/10/08 08:31:29;;;;;;;17.92;14.05;;;12.00;80.20;;;;;;5071048;28;20102;-78
2021/10/08 08:33:56;;;;;;;21.05;16.67;;;12.00;80.90;;;;;;5071270;28;20074;-79
2021/10/08 08:36:23;;;;;;;18.98;14.60;;;12.10;80.50;;;;;;5072302;28;20028;-80
2021/10/08 08:38:50;;;;;;;19.65;16.02;;;11.80;81.00;;;;;;5054451;28;20105;-79
2021/10/08 08:41:15;;;;;;;21.48;15.00;;;11.90;81.30;;;;;;5070773;28;20021;-82
2021/10/08 08:43:41;;;;;;;16.38;13.07;;;11.90;81.60;;;;;;5071632;28;20047;-79
2021/10/08 08:46:06;;;;;;;24.27;15.50;;;12.00;81.30;;;;;;5070222;28;20107;-80
2021/10/08 08:48:34;;;;;;;19.17;15.82;;;12.20;80.60;;;;;;5070333;28;20441;-78
2021/10/08 08:51:03;;;;;;;17.27;13.25;;;12.10;79.90;;;;;;5070773;28;20017;-84
2021/10/08 08:53:33;;;;;;;18.10;13.88;;;12.10;80.70;;;;;;5087985;28;20029;-88
2021/10/08 08:56:02;;;;;;;17.10;13.95;;;12.20;81.10;;;;;;5073889;28;20036;-82
2021/10/08 08:58:28;;;;;;;22.65;16.00;;;12.30;80.60;;;;;;5070788;28;20021;-76
2021/10/08 09:01:02;;;;;;;20.48;16.42;;;12.30;80.00;;;;;;5071424;28;20036;-73
2021/10/08 09:03:27;;;;;;;19.13;16.17;;;12.30;79.10;;;;;;5070295;28;20048;-74
2021/10/08 09:05:53;;;;;;;20.45;15.85;;;12.10;79.90;;;;;;5070243;28;20547;-74
2021/10/08 09:08:19;;;;;;;21.20;15.32;;;11.70;81.30;;;;;;5070436;28;20163;-73
2021/10/08 09:10:47;;;;;;;23.60;17.38;;;11.70;81.50;;;;;;5069550;28;20113;-73
2021/10/08 09:13:17;;;;;;;22.85;18.42;;;11.60;82.10;;;;;;5071636;28;20025;-73
2021/10/08 09:15:51;;;;;;;20.20;16.52;;;11.40;83.90;;;;;;5070227;28;20020;-73
2021/10/08 09:18:19;;;;;;;23.87;17.83;;;11.30;84.40;;;;;;5069988;28;20472;-73
2021/10/08 09:21:08;;;;;;;26.83;19.10;;;11.30;84.90;;;;;;5070037;28;20255;-73
2021/10/08 09:23:49;;;;;;;23.65;18.40;;;11.20;85.10;;;;;;5070277;28;20068;-73
2021/10/08 09:26:16;;;;;;;25.73;17.42;;;11.30;85.00;;;;;;5070350;28;20070;-73
2021/10/08 09:29:16;;;;;;;26.48;18.58;;;11.40;84.70;;;;;;5069805;28;20040;-73
2021/10/08 09:31:44;;;;;;;25.77;19.30;;;11.50;84.80;;;;;;5061428;28;20098;-73
2021/10/08 09:34:23;;;;;;;25.23;18.73;;;11.50;85.10;;;;;;5069158;28;20047;-73
2021/10/08 09:37:03;;;;;;;25.73;19.52;;;11.50;85.00;;;;;;5069675;28;20416;-73
2021/10/08 09:39:33;;;;;;;30.67;21.27;;;11.40;84.90;;;;;;5070252;28;20067;-73
2021/10/08 09:42:01;;;;;;;28.25;20.05;;;11.30;85.70;;;;;;5071262;28;20021;-73
2021/10/08 09:44:32;;;;;;;32.42;19.92;;;11.30;85.70;;;;;;5069792;28;20033;-73
2021/10/08 09:47:13;;;;;;;28.17;20.20;;;11.40;85.80;;;;;;5069652;28;20117;-73
2021/10/08 09:49:39;;;;;;;25.42;19.30;;;11.40;86.10;;;;;;5069667;28;20120;-74
2021/10/08 09:52:28;;;;;;;25.83;20.90;;;11.40;86.00;;;;;;5070066;28;20033;-74
2021/10/08 09:55:04;;;;;;;25.45;20.92;;;11.40;85.30;;;;;;5069675;28;20515;-73
2021/10/08 09:57:50;;;;;;;31.60;22.42;;;11.40;86.00;;;;;;5069447;28;20035;-73
2021/10/08 10:00:39;;;;;;;26.90;21.27;;;11.20;86.30;;;;;;5074388;28;20062;-73
2021/10/08 10:03:08;;;;;;;26.67;22.10;;;11.30;87.00;;;;;;5074604;28;20165;-74
2021/10/08 10:05:34;;;;;;;27.25;21.52;;;11.40;86.40;;;;;;5073565;28;20095;-74
2021/10/08 10:08:00;;;;;;;26.60;21.38;;;11.50;85.90;;;;;;5073471;28;20070;-73
2021/10/08 10:10:28;;;;;;;27.50;20.98;;;11.70;86.10;;;;;;5073351;28;20024;-73
2021/10/08 10:12:55;;;;;;;30.10;21.90;;;11.80;84.50;;;;;;5073044;28;20363;-73
2021/10/08 10:15:22;;;;;;;26.88;20.25;;;11.90;84.00;;;;;;5073200;28;20032;-73
2021/10/08 10:17:49;;;;;;;22.58;18.30;;;11.90;84.00;;;;;;5073271;28;20036;-74
2021/10/08 10:20:15;;;;;;;24.30;18.30;;;12.00;84.10;;;;;;5074427;28;20145;-73
2021/10/08 10:22:42;;;;;;;24.05;18.85;;;11.90;83.80;;;;;;5072976;28;20506;-73
2021/10/08 10:25:11;;;;;;;27.67;19.70;;;11.90;84.20;;;;;;5073352;28;20356;-73
2021/10/08 10:27:39;;;;;;;27.77;19.58;;;11.80;84.10;;;;;;5072721;28;20331;-74
2021/10/08 10:30:06;;;;;;;23.33;18.13;;;11.70;84.70;;;;;;5072817;28;20040;-74
2021/10/08 10:32:33;;;;;;;23.65;19.98;;;11.70;85.30;;;;;;5072246;28;20035;-73
2021/10/08 10:35:03;;;;;;;27.45;19.90;;;11.70;85.40;;;;;;5072629;28;20028;-74
2021/10/08 10:37:42;;;;;;;23.25;20.02;;;11.70;85.70;;;;;;5073273;28;20200;-73
2021/10/08 10:40:24;;;;;;;34.83;21.42;;;11.70;86.00;;;;;;5072347;28;20108;-74
2021/10/08 10:43:15;;;;;;;30.23;20.55;;;12.00;85.60;;;;;;5070091;28;20020;-73
2021/10/08 10:45:46;;;;;;;25.25;19.23;;;12.30;84.70;;;;;;5071187;28;20430;-74
2021/10/08 10:48:43;;;;;;;20.48;17.50;;;12.50;84.00;;;;;;5071528;28;20052;-73
2021/10/08 10:51:20;;;;;;;18.67;15.88;;;12.70;83.60;;;;;;5072615;28;20040;-74
2021/10/08 10:53:53;;;;;;;24.17;16.17;;;13.20;82.80;;;;;;5072077;28;20048;-73
2021/10/08 10:56:43;;;;;;;17.23;14.95;;;13.60;81.10;;;;;;5072133;28;20025;-73
2021/10/08 10:59:24;;;;;;;19.63;15.07;;;13.80;79.70;;;;;;5071974;28;20048;-74
2021/10/08 11:04:37;;;;;;;17.10;13.23;;;14.40;77.40;;;;;;5073725;28;20441;-73
2021/10/08 11:07:06;;;;;;;20.42;15.27;;;14.50;76.30;;;;;;5072268;28;20032;-74
2021/10/08 11:09:32;;;;;;;19.45;14.68;;;14.50;76.10;;;;;;5071553;28;20124;-74
2021/10/08 11:12:37;;;;;;;19.10;14.55;;;14.60;75.80;;;;;;5071751;28;20048;-73
2021/10/08 11:15:18;;;;;;;23.45;15.15;;;14.60;76.00;;;;;;5073085;28;20052;-73
2021/10/08 11:17:54;;;;;;;21.23;14.30;;;14.70;75.70;;;;;;5071793;28;20032;-73
2021/10/08 11:20:29;;;;;;;16.58;13.40;;;15.00;74.40;;;;;;5072431;28;20385;-73
2021/10/08 11:22:59;;;;;;;15.55;12.23;;;15.00;74.10;;;;;;5071980;28;20074;-73
2021/10/08 11:25:26;;;;;;;16.27;12.13;;;15.10;74.10;;;;;;5071966;28;20024;-73
2021/10/08 11:27:52;;;;;;;17.38;12.93;;;15.30;74.00;;;;;;5072902;28;20255;-74
2021/10/08 11:30:19;;;;;;;16.58;12.88;;;15.40;73.20;;;;;;5071819;28;20056;-73
2021/10/08 11:32:49;;;;;;;18.33;13.02;;;15.50;72.60;;;;;;5072066;28;20082;-73
2021/10/08 11:35:19;;;;;;;15.70;12.15;;;15.30;72.90;;;;;;5073019;28;20185;-73
2021/10/08 11:37:49;;;;;;;24.98;13.65;;;15.30;73.10;;;;;;5071795;28;20020;-73
2021/10/08 11:40:26;;;;;;;18.67;12.43;;;15.30;73.20;;;;;;5071680;28;20112;-73
2021/10/08 11:42:57;;;;;;;18.50;13.73;;;15.40;73.10;;;;;;5071516;28;20186;-73
2021/10/08 11:45:47;;;;;;;17.52;13.10;;;15.30;72.70;;;;;;5071491;28;20025;-73
2021/10/08 11:48:23;;;;;;;17.10;13.23;;;15.50;73.10;;;;;;5071485;28;20376;-73
2021/10/08 11:51:05;;;;;;;16.02;11.90;;;15.40;72.20;;;;;;5071563;28;20158;-73
2021/10/08 11:53:49;;;;;;;19.67;13.57;;;15.30;72.40;;;;;;5071636;28;20028;-73
2021/10/08 11:56:33;;;;;;;17.13;13.02;;;15.20;72.80;;;;;;5071459;28;20025;-73
2021/10/08 11:58:58;;;;;;;17.35;12.85;;;14.80;74.50;;;;;;5071292;28;20554;-73
2021/10/08 12:01:25;;;;;;;14.50;11.23;;;14.70;74.60;;;;;;5071553;28;20051;-73
2021/10/08 12:03:52;;;;;;;16.10;11.93;;;14.90;75.30;;;;;;5070943;28;20040;-73
2021/10/08 12:06:26;;;;;;;15.27;11.63;;;14.90;74.00;;;;;;5072792;28;20185;-73
2021/10/08 12:08:53;;;;;;;20.42;13.43;;;15.00;74.10;;;;;;5071329;28;20051;-73
2021/10/08 12:11:20;;;;;;;18.25;13.70;;;14.90;74.10;;;;;;5071139;28;20025;-73
2021/10/08 12:13:58;;;;;;;16.10;12.55;;;14.90;74.30;;;;;;5071364;28;20550;-74
2021/10/08 12:16:26;;;;;;;19.73;12.30;;;14.90;74.40;;;;;;5071241;28;20040;-73
2021/10/08 12:18:57;;;;;;;16.88;12.15;;;15.00;74.00;;;;;;5071017;28;20025;-73
2021/10/08 12:21:47;;;;;;;17.02;11.68;;;15.00;74.40;;;;;;5070625;28;20059;-73
2021/10/08 12:24:20;;;;;;;18.70;11.70;;;15.00;73.60;;;;;;5065401;28;20119;-73
2021/10/08 12:26:54;;;;;;;14.43;11.50;;;15.40;73.30;;;;;;5070948;28;20380;-74
2021/10/08 12:29:20;;;;;;;16.13;11.90;;;15.50;72.60;;;;;;5070660;28;20024;-73
2021/10/08 12:31:46;;;;;;;15.07;13.10;;;15.50;71.40;;;;;;5070591;28;20087;-73
2021/10/08 12:34:12;;;;;;;16.02;12.23;;;15.30;72.00;;;;;;5070386;28;20032;-73
2021/10/08 12:36:38;;;;;;;20.67;12.65;;;15.10;72.80;;;;;;5070871;28;20422;-73
2021/10/08 12:39:16;;;;;;;14.38;11.48;;;15.00;73.40;;;;;;5070451;28;20040;-73
2021/10/08 12:42:06;;;;;;;17.13;12.23;;;15.00;74.10;;;;;;5070046;28;20082;-73